Time;durP1;ratioP1;P1;durP2;ratioP2;P2;SDS_P1;SDS_P2;PMS_P1;PMS_P2;Temp;Humidity;BMP_temperature;BMP_pressure;BME280_temperature;BME280_humidity;BME280_pressure;Samples;Min_cycle;Max_cycle;Signal;HPM_P1;HPM_P2
2023/05/02 00:03:16;;;;;;;0.70;0.68;;;;;;;7.97;50.81;100757.63;10609304;28;20035;-75
2023/05/02 00:08:18;;;;;;;1.13;0.73;;;;;;;7.93;51.33;100768.25;10597717;28;20066;-76
2023/05/02 00:13:20;;;;;;;1.10;0.82;;;;;;;7.68;52.27;100763.41;10618212;28;20520;-75
2023/05/02 00:18:23;;;;;;;1.40;0.77;;;;;;;7.55;54.00;100761.91;10599741;28;20039;-77
2023/05/02 00:23:28;;;;;;;0.80;0.70;;;;;;;7.36;55.44;100765.25;10605880;28;20040;-77
2023/05/02 00:28:32;;;;;;;0.98;0.40;;;;;;;7.17;57.16;100760.13;10597384;28;20052;-77
2023/05/02 00:33:34;;;;;;;0.70;0.70;;;;;;;7.06;57.71;100752.91;10618350;28;20047;-77
2023/05/02 00:38:36;;;;;;;1.25;0.90;;;;;;;7.03;59.07;100752.59;10615554;28;20048;-76
2023/05/02 00:43:39;;;;;;;1.05;0.80;;;;;;;6.87;60.01;100743.41;10610615;28;20035;-77
2023/05/02 00:48:44;;;;;;;0.50;0.50;;;;;;;6.79;60.24;100744.69;10617531;28;20036;-76
2023/05/02 00:53:46;;;;;;;1.00;0.60;;;;;;;6.78;61.52;100743.03;10582084;28;20517;-77
2023/05/02 00:58:49;;;;;;;1.90;1.00;;;;;;;6.78;62.34;100743.03;10570107;28;20039;-76
2023/05/02 01:04:07;;;;;;;1.05;0.95;;;;;;;6.83;63.20;100742.25;10555726;28;20063;-75
2023/05/02 01:09:33;;;;;;;0.80;0.80;;;;;;;6.67;64.87;100735.78;10601206;28;20413;-75
2023/05/02 01:14:41;;;;;;;1.00;0.80;;;;;;;6.43;67.17;100737.94;10614207;27;20047;-77
2023/05/02 01:19:50;;;;;;;0.77;0.77;;;;;;;6.32;67.97;100734.22;10616383;28;20047;-76
2023/05/02 01:25:11;;;;;;;0.82;0.73;;;;;;;6.27;69.92;100728.72;10572962;27;20047;-76
2023/05/02 01:30:16;;;;;;;1.60;0.85;;;;;;;6.20;71.67;100738.94;10623094;27;20043;-76
2023/05/02 01:35:20;;;;;;;1.27;1.00;;;;;;;6.06;72.20;100726.72;10640008;27;20638;-76
2023/05/02 01:40:24;;;;;;;1.55;1.25;;;;;;;6.10;73.47;100733.34;10639771;27;20039;-76
2023/05/02 01:45:27;;;;;;;1.15;0.93;;;;;;;6.08;73.91;100738.22;10639351;27;20489;-76
2023/05/02 01:50:29;;;;;;;0.98;0.90;;;;;;;5.94;74.83;100732.28;10622643;27;20035;-76
2023/05/02 01:55:34;;;;;;;3.88;1.33;;;;;;;5.88;75.74;100735.13;10639153;27;20039;-77
2023/05/02 02:00:37;;;;;;;1.52;1.00;;;;;;;5.95;76.38;100724.94;10639282;27;20074;-76
2023/05/02 02:05:40;;;;;;;1.48;1.08;;;;;;;5.95;77.15;100730.41;10616431;27;20536;-76
2023/05/02 02:10:45;;;;;;;2.05;1.20;;;;;;;5.96;77.51;100730.16;10638226;27;20644;-77
2023/05/02 02:15:49;;;;;;;3.10;1.38;;;;;;;5.80;78.70;100732.84;10638340;27;20039;-76
2023/05/02 02:20:52;;;;;;;1.75;1.20;;;;;;;5.72;79.64;100732.16;10620960;27;20108;-77
2023/05/02 02:25:56;;;;;;;1.48;1.10;;;;;;;5.64;80.24;100735.31;10618164;27;20047;-76
2023/05/02 02:30:59;;;;;;;1.27;1.10;;;;;;;5.70;81.07;100726.13;10636751;27;20425;-76
2023/05/02 02:36:13;;;;;;;2.45;1.20;;;;;;;5.64;81.56;100735.31;10656234;27;20078;-76
2023/05/02 02:41:35;;;;;;;2.92;1.20;;;;;;;5.70;81.81;100745.19;10637432;27;20046;-75
2023/05/02 02:46:58;;;;;;;2.35;1.50;;;;;;;5.59;83.31;100742.56;10598340;27;20035;-76
2023/05/02 02:52:17;;;;;;;1.92;1.50;;;;;;;5.69;83.03;100748.16;10636339;27;20505;-76
2023/05/02 02:57:27;;;;;;;1.27;0.98;;;;;;;5.53;83.82;100722.56;10608828;27;20043;-76
2023/05/02 03:02:31;;;;;;;1.70;1.40;;;;;;;5.54;84.31;100726.94;10635747;27;20055;-76
2023/05/02 03:07:33;;;;;;;1.25;1.13;;;;;;;5.56;84.12;100715.84;10636606;27;20041;-76
2023/05/02 03:12:38;;;;;;;2.00;1.33;;;;;;;5.51;84.27;100713.84;10635459;27;20039;-76
2023/05/02 03:17:41;;;;;;;1.92;1.23;;;;;;;5.47;84.20;100712.69;10634184;27;20070;-77
2023/05/02 03:22:44;;;;;;;2.45;1.40;;;;;;;5.54;84.26;100710.63;10651633;27;20046;-76
2023/05/02 03:27:46;;;;;;;1.98;1.30;;;;;;;5.57;83.06;100707.44;10618840;27;20058;-76
2023/05/02 03:32:54;;;;;;;2.60;1.50;;;;;;;5.50;83.56;100706.75;10635607;28;20043;-76
2023/05/02 03:38:02;;;;;;;2.28;1.55;;;;;;;5.71;82.53;100697.84;10653640;28;20527;-76
2023/05/02 03:43:05;;;;;;;3.03;1.88;;;;;;;5.67;82.88;100695.88;10640470;27;20070;-76
2023/05/02 03:48:08;;;;;;;2.03;1.60;;;;;;;5.39;83.79;100702.22;10638773;27;20042;-76
2023/05/02 03:53:10;;;;;;;1.58;1.45;;;;;;;5.64;83.96;100708.06;10632213;27;20050;-76
2023/05/02 03:58:22;;;;;;;3.35;1.80;;;;;;;5.64;83.20;100701.81;10623840;27;20042;-76
2023/05/02 04:03:26;;;;;;;5.43;2.10;;;;;;;5.76;83.58;100699.84;10623467;27;20031;-77
2023/05/02 04:08:28;;;;;;;6.72;2.65;;;;;;;5.84;83.16;100699.41;10658322;27;20039;-77
2023/05/02 04:13:31;;;;;;;8.70;2.40;;;;;;;5.84;82.51;100687.69;10625859;27;20053;-76
2023/05/02 04:18:34;;;;;;;4.05;2.30;;;;;;;5.86;81.84;100682.81;10625679;27;20043;-77
2023/05/02 04:23:38;;;;;;;5.20;2.55;;;;;;;6.11;81.39;100685.16;10630240;27;20042;-76
2023/05/02 04:28:41;;;;;;;5.45;2.10;;;;;;;6.05;80.88;100686.94;10619683;27;20043;-76
2023/05/02 04:33:47;;;;;;;3.88;2.05;;;;;;;6.23;80.56;100673.03;10642369;27;20055;-76
2023/05/02 04:38:51;;;;;;;3.65;1.98;;;;;;;6.46;80.13;100679.34;10598395;27;20043;-76
2023/05/02 04:43:54;;;;;;;3.25;1.85;;;;;;;6.33;79.81;100672.38;10609335;27;20043;-76
2023/05/02 04:48:56;;;;;;;2.00;1.80;;;;;;;6.41;79.38;100647.38;10634130;27;20039;-76
2023/05/02 04:53:58;;;;;;;3.03;2.25;;;;;;;6.49;79.13;100641.50;10621900;27;20043;-76
2023/05/02 04:59:01;;;;;;;3.95;2.30;;;;;;;6.93;78.62;100628.63;10624481;27;20039;-76
2023/05/02 05:04:06;;;;;;;2.33;1.25;;;;;;;7.03;78.39;100625.19;10615184;27;20035;-76
2023/05/02 05:09:14;;;;;;;;;;;;;;;6.97;77.57;100614.50;10615603;27;20031;-76
2023/05/02 05:14:16;;;;;;;3.08;2.40;;;;;;;7.15;77.40;100619.56;10609646;27;19919;-75
2023/05/02 05:19:22;;;;;;;3.15;1.92;;;;;;;7.42;76.63;100612.16;10599579;27;20047;-76
2023/05/02 05:24:24;;;;;;;5.70;2.40;;;;;;;7.55;75.20;100606.25;10625445;27;20046;-76
2023/05/02 05:29:31;;;;;;;4.20;2.35;;;;;;;7.81;73.99;100592.78;10607659;27;20035;-79
2023/05/02 05:34:35;;;;;;;3.10;1.77;;;;;;;8.08;73.01;100588.00;10620220;27;20508;-76
2023/05/02 05:39:37;;;;;;;3.05;1.98;;;;;;;8.42;72.17;100584.91;10638855;27;20046;-77
2023/05/02 05:44:41;;;;;;;4.00;2.63;;;;;;;8.68;71.11;100583.91;10639700;27;20130;-76
2023/05/02 05:49:44;;;;;;;1.70;1.55;;;;;;;9.13;69.53;100563.13;10639548;27;20043;-77
2023/05/02 05:54:46;;;;;;;3.15;1.55;;;;;;;9.05;68.21;100567.25;10657445;27;20051;-76
2023/05/02 05:59:49;;;;;;;5.25;2.17;;;;;;;8.93;68.25;100566.69;10638851;27;20051;-77
2023/05/02 06:04:52;;;;;;;4.90;1.90;;;;;;;9.09;68.21;100551.09;10653141;27;20501;-76
2023/05/02 06:09:57;;;;;;;3.67;1.90;;;;;;;9.36;66.63;100550.81;10655719;27;20043;-77
2023/05/02 06:15:00;;;;;;;3.50;1.73;;;;;;;9.62;65.21;100544.22;10637978;27;20047;-76
2023/05/02 06:20:03;;;;;;;3.92;2.00;;;;;;;10.34;62.96;100541.25;10620914;27;20152;-77
2023/05/02 06:25:06;;;;;;;3.95;2.15;;;;;;;11.36;60.08;100533.13;10625582;27;20379;-77
2023/05/02 06:30:08;;;;;;;2.70;1.85;;;;;;;12.26;58.11;100524.97;10619639;27;20043;-77
2023/05/02 06:35:11;;;;;;;4.13;1.90;;;;;;;12.16;55.87;100527.06;10603031;27;20524;-77
2023/05/02 06:40:13;;;;;;;2.95;1.67;;;;;;;12.11;56.08;100510.59;10655751;27;20038;-77
2023/05/02 06:45:15;;;;;;;3.47;2.05;;;;;;;12.05;55.74;100513.44;10655230;27;20038;-75
2023/05/02 06:50:18;;;;;;;3.03;1.95;;;;;;;12.01;55.31;100511.56;10654603;27;20039;-75
2023/05/02 06:55:21;;;;;;;3.58;1.95;;;;;;;12.41;54.97;100487.38;10636290;27;20485;-75
2023/05/02 07:00:23;;;;;;;9.85;2.78;;;;;;;12.92;53.13;100496.50;10635988;27;20150;-75
2023/05/02 07:05:25;;;;;;;5.07;2.33;;;;;;;12.88;52.79;100489.97;10654787;27;20057;-75
2023/05/02 07:10:27;;;;;;;6.13;2.50;;;;;;;13.39;50.99;100486.34;10619013;27;20043;-75
2023/05/02 07:15:29;;;;;;;2.65;2.08;;;;;;;13.72;49.93;100491.81;10635711;27;20038;-75
2023/05/02 07:20:32;;;;;;;4.47;2.00;;;;;;;14.36;48.70;100478.84;10639814;27;20043;-76
2023/05/02 07:25:35;;;;;;;4.15;2.20;;;;;;;14.63;46.96;100465.03;10620170;27;20055;-75
2023/05/02 07:30:38;;;;;;;3.58;2.00;;;;;;;14.93;47.09;100471.75;10653054;27;20050;-76
2023/05/02 07:35:41;;;;;;;4.65;1.95;;;;;;;15.14;45.90;100463.75;10633102;28;20040;-75
2023/05/02 07:40:45;;;;;;;7.38;2.70;;;;;;;15.27;45.37;100465.63;10652151;28;20051;-75
2023/05/02 07:45:47;;;;;;;2.78;1.70;;;;;;;15.72;44.28;100456.41;10608683;28;20031;-76
2023/05/02 07:50:49;;;;;;;3.08;1.90;;;;;;;16.01;43.10;100445.59;10646650;28;20421;-78
2023/05/02 07:55:51;;;;;;;3.15;1.77;;;;;;;16.11;42.61;100439.75;10617875;28;20547;-77
2023/05/02 08:00:53;;;;;;;5.55;2.10;;;;;;;16.69;41.85;100433.00;10634999;28;20035;-77
2023/05/02 08:05:56;;;;;;;3.95;2.00;;;;;;;17.02;40.99;100427.72;10632529;28;20039;-77
2023/05/02 08:10:58;;;;;;;4.40;2.50;;;;;;;17.27;40.19;100423.25;10617680;28;20035;-75
2023/05/02 08:16:01;;;;;;;3.22;1.98;;;;;;;17.56;38.65;100407.81;10653132;28;20050;-75
2023/05/02 08:21:04;;;;;;;3.30;2.08;;;;;;;18.00;37.87;100390.59;10630226;28;20043;-75
2023/05/02 08:26:06;;;;;;;3.90;2.00;;;;;;;18.14;36.70;100408.97;10638350;28;20429;-74
2023/05/02 08:31:11;;;;;;;4.03;2.20;;;;;;;18.30;36.34;100394.13;10621052;27;20053;-74
2023/05/02 08:36:14;;;;;;;5.72;2.42;;;;;;;18.40;36.50;100398.47;10641809;27;20042;-74
2023/05/02 08:41:18;;;;;;;3.38;1.50;;;;;;;18.86;35.94;100393.81;10641984;27;20035;-74
2023/05/02 08:46:21;;;;;;;3.25;1.90;;;;;;;18.99;34.87;100395.47;10660171;27;20043;-75
2023/05/02 08:51:24;;;;;;;2.50;1.75;;;;;;;18.78;35.12;100395.53;10608383;27;20043;-75
2023/05/02 08:56:26;;;;;;;3.97;1.80;;;;;;;18.40;34.60;100390.13;10642019;27;20046;-74
2023/05/02 09:01:29;;;;;;;6.38;1.75;;;;;;;18.43;35.39;100385.88;10641933;27;20043;-76
2023/05/02 09:06:32;;;;;;;3.92;1.35;;;;;;;18.16;35.17;100390.00;10635843;27;20070;-73
2023/05/02 09:11:34;;;;;;;2.63;1.35;;;;;;;17.26;36.06;100376.44;10653736;27;20121;-73
2023/05/02 09:16:38;;;;;;;3.40;1.40;;;;;;;17.09;35.98;100355.94;10659286;27;20770;-75
2023/05/02 09:21:42;;;;;;;1.98;1.65;;;;;;;16.93;36.29;100371.47;10639873;27;20039;-75
2023/05/02 09:27:01;;;;;;;3.78;1.48;;;;;;;16.30;36.54;100361.91;10657365;27;20054;-74
2023/05/02 09:32:05;;;;;;;3.92;1.40;;;;;;;16.13;37.28;100348.06;10622750;27;20042;-74
2023/05/02 09:37:07;;;;;;;4.88;1.83;;;;;;;16.12;37.05;100347.25;10654612;27;20066;-74
2023/05/02 09:42:10;;;;;;;5.32;1.60;;;;;;;16.11;36.93;100344.81;10641341;27;20484;-75
2023/05/02 09:47:25;;;;;;;4.57;1.77;;;;;;;15.88;36.95;100352.47;10597035;28;20383;-73
2023/05/02 09:52:27;;;;;;;3.70;1.50;;;;;;;15.92;37.13;100348.72;10620933;27;20043;-75
2023/05/02 09:57:40;;;;;;;2.13;1.50;;;;;;;16.08;36.80;100339.94;10656057;27;20042;-74
2023/05/02 10:02:42;;;;;;;2.78;1.60;;;;;;;16.09;36.52;100339.63;10615837;27;20043;-74
2023/05/02 10:07:45;;;;;;;5.75;1.67;;;;;;;16.03;36.08;100321.53;10655646;27;20417;-74
2023/05/02 10:12:48;;;;;;;1.92;1.50;;;;;;;15.99;35.41;100323.34;10620962;27;20046;-75
2023/05/02 10:17:51;;;;;;;2.45;1.40;;;;;;;16.06;35.47;100315.34;10602501;27;20042;-74
2023/05/02 10:22:54;;;;;;;2.60;1.30;;;;;;;16.17;35.08;100329.69;10620107;27;20043;-74
2023/05/02 10:27:57;;;;;;;3.78;1.42;;;;;;;16.20;34.57;100318.78;10633591;27;20050;-73
2023/05/02 10:33:00;;;;;;;1.48;1.33;;;;;;;16.23;34.66;100307.03;10619679;27;20035;-74
2023/05/02 10:38:03;;;;;;;3.03;1.27;;;;;;;16.22;34.25;100299.06;10637420;27;20035;-72
2023/05/02 10:43:05;;;;;;;2.63;1.30;;;;;;;16.13;34.06;100310.13;10637046;27;20035;-74
2023/05/02 10:48:18;;;;;;;5.28;1.48;;;;;;;16.11;34.58;100306.06;10637754;27;20035;-73
2023/05/02 10:53:32;;;;;;;1.63;1.38;;;;;;;15.95;34.53;100312.09;10650991;27;20500;-74
2023/05/02 10:58:35;;;;;;;1.65;1.20;;;;;;;15.98;34.12;100302.34;10635881;27;20054;-73
2023/05/02 11:04:03;;;;;;;1.65;1.20;;;;;;;15.96;34.05;100291.56;10650404;27;20035;-73
2023/05/02 11:09:20;;;;;;;3.28;1.30;;;;;;;16.09;34.40;100288.97;10636705;27;20581;-73
2023/05/02 11:14:26;;;;;;;4.65;1.30;;;;;;;16.26;33.68;100264.03;10636276;27;20038;-74
2023/05/02 11:19:30;;;;;;;1.73;1.27;;;;;;;16.34;33.80;100251.34;10635578;27;20049;-74
2023/05/02 11:24:40;;;;;;;1.95;1.13;;;;;;;16.49;33.62;100264.66;10623142;27;20056;-74
2023/05/02 11:29:52;;;;;;;1.70;0.90;;;;;;;16.56;33.56;100237.25;10625803;27;20497;-74
2023/05/02 11:34:54;;;;;;;3.22;1.58;;;;;;;16.58;33.44;100248.81;10652857;27;20031;-73
2023/05/02 11:40:12;;;;;;;2.90;1.35;;;;;;;16.64;33.46;100238.34;10645461;27;20042;-72
2023/05/02 11:45:14;;;;;;;2.70;1.60;;;;;;;16.67;33.39;100241.34;10631761;27;20035;-72
2023/05/02 11:50:18;;;;;;;3.25;1.90;;;;;;;16.60;33.53;100210.50;10625464;28;20031;-72
2023/05/02 11:55:20;;;;;;;2.60;1.42;;;;;;;16.60;33.01;100216.06;10618019;27;20409;-73
2023/05/02 12:00:26;;;;;;;2.80;1.90;;;;;;;16.70;32.57;100218.50;10651223;27;20050;-73
2023/05/02 12:05:29;;;;;;;2.40;1.10;;;;;;;16.67;32.68;100210.06;10626287;28;20046;-74
2023/05/02 12:10:36;;;;;;;3.22;1.45;;;;;;;16.66;32.43;100194.50;10623706;27;20419;-74
2023/05/02 12:15:38;;;;;;;;;;;;;;;16.67;31.88;100187.88;10618254;27;20378;-74
2023/05/02 12:20:41;;;;;;;3.33;1.25;;;;;;;16.80;32.26;100172.97;10637589;27;19923;-73
2023/05/02 12:25:44;;;;;;;2.20;1.60;;;;;;;16.90;31.98;100189.22;10639317;27;20507;-74
2023/05/02 12:30:48;;;;;;;1.08;1.00;;;;;;;17.02;32.12;100167.16;10638274;27;20043;-74
2023/05/02 12:35:51;;;;;;;1.75;1.13;;;;;;;17.07;31.74;100164.19;10641657;27;20055;-73
2023/05/02 12:40:57;;;;;;;2.15;1.38;;;;;;;17.13;31.22;100146.19;10654837;27;20039;-74
2023/05/02 12:46:09;;;;;;;2.85;1.17;;;;;;;17.17;31.05;100157.41;10637335;27;20039;-73
2023/05/02 12:51:22;;;;;;;2.97;2.13;;;;;;;17.17;30.48;100155.44;10639820;27;20043;-73
2023/05/02 12:56:30;;;;;;;4.03;1.50;;;;;;;17.20;30.84;100140.13;10631000;27;20051;-73
2023/05/02 13:01:33;;;;;;;2.17;1.35;;;;;;;17.22;30.97;100137.00;10636500;27;20035;-73
2023/05/02 13:06:36;;;;;;;7.88;1.67;;;;;;;17.27;30.62;100129.28;10655282;27;20516;-73
2023/05/02 13:11:39;;;;;;;2.53;1.23;;;;;;;17.17;30.55;100130.50;10668347;27;20047;-74
2023/05/02 13:16:41;;;;;;;2.33;1.30;;;;;;;17.12;30.20;100111.28;10620737;27;20039;-75
2023/05/02 13:21:43;;;;;;;2.97;1.08;;;;;;;17.10;30.42;100113.59;10656680;27;20586;-74
2023/05/02 13:26:45;;;;;;;1.77;1.17;;;;;;;17.16;30.91;100106.69;10615760;27;20048;-74
2023/05/02 13:31:47;;;;;;;3.45;1.25;;;;;;;17.22;30.76;100095.41;10645069;27;20038;-75
2023/05/02 13:36:49;;;;;;;2.40;1.40;;;;;;;17.22;30.88;100089.88;10625958;27;20127;-72
2023/05/02 13:41:52;;;;;;;2.97;1.58;;;;;;;17.10;30.47;100096.97;10636465;27;20140;-71
2023/05/02 13:46:54;;;;;;;4.65;1.30;;;;;;;17.01;30.29;100087.06;10619582;27;20032;-73
2023/05/02 13:51:56;;;;;;;3.38;1.00;;;;;;;16.93;29.98;100069.38;10622220;27;20035;-73
2023/05/02 13:56:59;;;;;;;1.92;1.08;;;;;;;16.94;29.81;100072.97;10604473;27;20145;-72
2023/05/02 14:02:01;;;;;;;2.67;1.38;;;;;;;16.98;30.08;100062.81;10641168;27;20058;-72
2023/05/02 14:07:03;;;;;;;3.53;1.45;;;;;;;16.98;29.82;100041.44;10645581;27;20030;-72
2023/05/02 14:12:05;;;;;;;6.65;1.63;;;;;;;16.92;29.51;100045.59;10642174;27;20359;-72
2023/05/02 14:17:08;;;;;;;1.65;1.00;;;;;;;16.83;29.66;100036.50;10644037;27;20039;-72
2023/05/02 14:22:10;;;;;;;5.05;1.27;;;;;;;16.88;29.54;100042.69;10645043;27;20043;-73
2023/05/02 14:27:16;;;;;;;2.97;1.45;;;;;;;16.86;29.60;100033.91;10626595;27;20039;-73
2023/05/02 14:32:19;;;;;;;1.95;1.30;;;;;;;16.72;29.66;100038.88;10645504;27;20035;-73
2023/05/02 14:37:21;;;;;;;2.67;1.20;;;;;;;16.68;29.64;99998.34;10649221;27;20158;-72
2023/05/02 14:42:24;;;;;;;3.95;1.38;;;;;;;16.66;30.31;100018.06;10631568;27;20063;-72
2023/05/02 14:47:27;;;;;;;2.10;1.35;;;;;;;16.62;30.24;100011.53;10630610;27;20044;-72
2023/05/02 14:52:30;;;;;;;3.33;1.55;;;;;;;16.53;30.30;100006.06;10626977;27;20050;-73
2023/05/02 14:57:32;;;;;;;3.70;1.40;;;;;;;16.43;30.61;100000.91;10648234;27;20035;-74
2023/05/02 15:02:35;;;;;;;2.42;1.00;;;;;;;16.40;31.22;100000.78;10621659;27;20420;-73
2023/05/02 15:07:37;;;;;;;2.97;1.35;;;;;;;16.39;30.78;99977.81;10621961;27;20035;-71
2023/05/02 15:12:42;;;;;;;3.85;1.63;;;;;;;16.36;31.15;99986.81;10618542;27;20031;-73
2023/05/02 15:17:44;;;;;;;10.88;1.65;;;;;;;16.33;31.07;99975.59;10643258;27;20038;-73
2023/05/02 15:22:46;;;;;;;4.55;1.27;;;;;;;16.30;31.75;99965.97;10611201;27;20055;-76
2023/05/02 15:27:49;;;;;;;3.95;1.60;;;;;;;16.25;31.74;99963.41;10596253;27;20050;-75
2023/05/02 15:32:51;;;;;;;3.10;1.67;;;;;;;16.22;31.90;99947.47;10595647;27;20042;-75
2023/05/02 15:37:54;;;;;;;3.50;1.27;;;;;;;16.12;32.04;99937.59;10608549;28;20038;-76
2023/05/02 15:42:56;;;;;;;4.07;1.38;;;;;;;16.06;32.63;99940.91;10625448;27;20043;-73
2023/05/02 15:47:58;;;;;;;3.33;1.73;;;;;;;16.00;33.19;99945.84;10647270;27;20042;-73
2023/05/02 15:53:00;;;;;;;1.13;1.02;;;;;;;15.89;33.88;99970.28;10630470;27;20042;-73
2023/05/02 15:58:03;;;;;;;4.95;1.85;;;;;;;15.71;37.31;99992.84;10597623;27;20039;-73
2023/05/02 16:03:05;;;;;;;4.65;1.88;;;;;;;14.44;44.56;100006.09;10611195;27;20039;-73
2023/05/02 16:08:07;;;;;;;5.25;2.10;;;;;;;13.31;49.56;100048.06;10649378;28;20213;-73
2023/05/02 16:13:09;;;;;;;2.35;1.58;;;;;;;12.28;55.08;100044.06;10640619;27;20049;-73
2023/05/02 16:18:12;;;;;;;4.32;2.17;;;;;;;11.79;58.05;100058.50;10645351;27;20054;-73
2023/05/02 16:23:15;;;;;;;3.75;1.90;;;;;;;11.40;62.41;100083.63;10612611;27;20038;-73
2023/05/02 16:28:17;;;;;;;3.60;2.55;;;;;;;11.04;66.04;100081.44;10622699;27;20134;-73
2023/05/02 16:33:20;;;;;;;3.35;2.38;;;;;;;10.59;68.86;100121.34;10608925;28;20040;-73
2023/05/02 16:38:22;;;;;;;2.90;1.90;;;;;;;10.15;73.02;100136.06;10615955;28;20051;-73
2023/05/02 16:43:24;;;;;;;2.60;2.08;;;;;;;9.70;75.99;100139.25;10594249;28;20040;-73
2023/05/02 16:48:27;;;;;;;3.03;2.10;;;;;;;9.30;78.02;100139.28;10564729;28;20055;-73
2023/05/02 16:53:30;;;;;;;3.90;2.10;;;;;;;8.89;80.77;100146.13;10605303;27;20122;-74
2023/05/02 16:58:32;;;;;;;3.25;2.38;;;;;;;8.67;81.93;100155.50;10600695;27;20767;-73
2023/05/02 17:03:34;;;;;;;4.93;2.88;;;;;;;8.52;82.92;100169.28;10593818;27;20039;-74
2023/05/02 17:08:37;;;;;;;3.45;2.50;;;;;;;8.37;83.89;100161.94;10589235;27;20512;-74
2023/05/02 17:13:41;;;;;;;6.13;3.08;;;;;;;8.39;84.21;100158.91;10612888;27;20035;-75
2023/05/02 17:18:43;;;;;;;3.10;2.42;;;;;;;8.16;84.32;100166.63;10592425;27;20082;-72
2023/05/02 17:23:46;;;;;;;5.35;3.10;;;;;;;8.15;85.20;100164.94;10587565;27;20035;-73
2023/05/02 17:28:52;;;;;;;3.50;2.17;;;;;;;8.24;86.37;100157.00;10559804;27;20518;-73
2023/05/02 17:33:55;;;;;;;5.70;2.30;;;;;;;8.07;86.11;100153.78;10576995;27;20032;-75
2023/05/02 17:38:57;;;;;;;2.75;1.90;;;;;;;7.90;86.99;100162.28;10587364;27;20051;-73
2023/05/02 17:44:00;;;;;;;2.97;1.90;;;;;;;7.71;87.08;100153.00;10556438;27;20040;-75
2023/05/02 17:49:02;;;;;;;3.40;1.75;;;;;;;7.70;87.34;100174.03;10573412;27;20042;-77
2023/05/02 17:54:04;;;;;;;3.08;1.63;;;;;;;7.57;86.98;100180.84;10584827;27;20048;-72
2023/05/02 17:59:10;;;;;;;0.20;0.20;;;;;;;7.31;87.45;100184.66;10589015;27;20047;-74
2023/05/02 18:04:13;;;;;;;0.00;0.00;;;;;;;7.03;87.45;100220.59;10576054;27;20038;-74
2023/05/02 18:09:15;;;;;;;0.00;0.00;;;;;;;6.78;88.24;100243.16;10585899;27;20036;-76
2023/05/02 18:14:18;;;;;;;0.10;0.08;;;;;;;6.31;88.85;100255.69;10563811;27;20490;-75
2023/05/02 18:19:21;;;;;;;0.35;0.08;;;;;;;5.86;88.36;100253.41;10598481;28;20047;-76
2023/05/02 18:24:24;;;;;;;0.10;0.08;;;;;;;5.38;87.67;100262.47;10558888;28;20564;-76
2023/05/02 18:29:26;;;;;;;0.10;0.10;;;;;;;5.14;88.43;100262.75;10631293;27;20062;-78
2023/05/02 18:34:32;;;;;;;0.00;0.00;;;;;;;5.03;88.41;100260.16;10621884;27;20047;-76
2023/05/02 18:39:35;;;;;;;0.10;0.10;;;;;;;4.68;88.14;100258.63;10645151;27;20089;-72
2023/05/02 18:44:37;;;;;;;0.00;0.00;;;;;;;4.67;88.37;100253.47;10635068;27;20035;-73
2023/05/02 18:50:05;;;;;;;0.17;0.17;;;;;;;4.57;88.87;100247.91;10637460;27;20035;-74
2023/05/02 18:55:07;;;;;;;0.00;0.00;;;;;;;4.58;89.12;100244.13;10600531;27;20055;-73
2023/05/02 19:00:10;;;;;;;0.00;0.00;;;;;;;4.43;89.08;100253.69;10618420;27;20049;-73
2023/05/02 19:05:13;;;;;;;0.00;0.00;;;;;;;4.33;88.48;100242.66;10597246;27;20419;-73
2023/05/02 19:10:16;;;;;;;0.00;0.00;;;;;;;4.48;88.55;100256.47;10606278;27;20062;-74
2023/05/02 19:15:19;;;;;;;0.00;0.00;;;;;;;4.56;88.43;100259.84;10635770;27;20046;-75
2023/05/02 19:20:22;;;;;;;0.00;0.00;;;;;;;4.49;88.64;100246.44;10606551;27;20058;-74
2023/05/02 19:25:24;;;;;;;0.00;0.00;;;;;;;4.39;87.69;100255.28;10648808;27;20505;-74
2023/05/02 19:30:26;;;;;;;0.00;0.00;;;;;;;4.43;87.38;100242.00;10649257;27;20031;-75
2023/05/02 19:35:32;;;;;;;0.00;0.00;;;;;;;4.62;87.08;100237.91;10673555;27;20046;-75
2023/05/02 19:40:35;;;;;;;0.00;0.00;;;;;;;4.58;85.63;100233.25;10629080;27;20050;-75
2023/05/02 19:45:37;;;;;;;0.00;0.00;;;;;;;4.80;83.88;100242.22;10652693;28;20039;-77
2023/05/02 19:50:42;;;;;;;0.00;0.00;;;;;;;4.73;82.48;100223.41;10627973;27;20541;-76
2023/05/02 19:55:44;;;;;;;0.20;0.20;;;;;;;4.84;80.60;100227.03;10641149;27;20039;-75
2023/05/02 20:00:51;;;;;;;0.00;0.00;;;;;;;4.94;79.47;100238.06;10639827;27;20046;-77
2023/05/02 20:05:57;;;;;;;0.10;0.10;;;;;;;4.86;79.37;100249.38;10627170;27;20049;-77
2023/05/02 20:10:59;;;;;;;0.00;0.00;;;;;;;5.06;80.49;100227.03;10619370;27;20058;-75
2023/05/02 20:16:02;;;;;;;0.00;0.00;;;;;;;4.93;79.74;100230.97;10647727;27;20047;-76
2023/05/02 20:21:04;;;;;;;0.00;0.00;;;;;;;4.91;80.53;100229.59;10627397;27;20039;-75
2023/05/02 20:26:07;;;;;;;3.40;0.28;;;;;;;4.94;80.46;100242.66;10624391;27;20035;-77
2023/05/02 20:31:09;;;;;;;0.00;0.00;;;;;;;5.06;80.48;100244.19;10629675;27;20035;-76
2023/05/02 20:36:13;;;;;;;0.00;0.00;;;;;;;5.07;79.96;100237.66;10647519;27;20413;-75
2023/05/02 20:41:20;;;;;;;0.13;0.13;;;;;;;4.95;78.71;100247.84;10656770;27;20043;-75
2023/05/02 20:46:22;;;;;;;0.00;0.00;;;;;;;5.02;79.13;100255.81;10639526;27;20134;-76
2023/05/02 20:51:28;;;;;;;0.52;0.35;;;;;;;4.89;78.46;100242.63;10650931;27;20035;-77
2023/05/02 20:56:33;;;;;;;0.00;0.00;;;;;;;4.88;78.88;100249.94;10603913;27;20035;-75
2023/05/02 21:01:36;;;;;;;0.00;0.00;;;;;;;4.81;79.75;100254.75;10655905;27;20039;-75
2023/05/02 21:06:38;;;;;;;0.00;0.00;;;;;;;4.75;80.53;100259.28;10644893;27;20042;-76
2023/05/02 21:11:40;;;;;;;0.63;0.45;;;;;;;4.75;80.59;100259.28;10660115;27;20047;-75
2023/05/02 21:16:43;;;;;;;0.40;0.40;;;;;;;4.62;80.97;100256.94;10619652;27;20042;-75
2023/05/02 21:21:46;;;;;;;1.13;0.70;;;;;;;4.68;81.08;100246.94;10619713;27;20045;-75
2023/05/02 21:26:48;;;;;;;0.80;0.57;;;;;;;4.60;82.14;100252.84;10612253;27;20204;-75
2023/05/02 21:31:51;;;;;;;0.95;0.65;;;;;;;4.61;81.96;100258.00;10603491;27;20048;-75
2023/05/02 21:36:53;;;;;;;2.70;0.52;;;;;;;4.46;82.46;100258.63;10563577;28;20052;-75
2023/05/02 21:41:55;;;;;;;0.15;0.15;;;;;;;4.60;82.09;100260.97;10580679;28;20062;-74
2023/05/02 21:46:58;;;;;;;0.30;0.30;;;;;;;4.43;80.64;100267.28;10589624;27;20047;-74
2023/05/02 21:52:00;;;;;;;0.50;0.50;;;;;;;4.44;81.09;100268.09;10573959;27;20682;-75
2023/05/02 21:57:02;;;;;;;0.60;0.38;;;;;;;4.38;81.55;100275.38;10575274;27;20051;-75
2023/05/02 22:02:05;;;;;;;2.28;0.40;;;;;;;4.34;82.51;100268.78;10591174;27;20047;-75
2023/05/02 22:07:07;;;;;;;0.77;0.50;;;;;;;4.24;82.15;100277.59;10607901;27;20035;-75
2023/05/02 22:12:09;;;;;;;0.70;0.52;;;;;;;4.24;82.33;100271.34;10613101;27;20040;-75
2023/05/02 22:17:17;;;;;;;0.60;0.30;;;;;;;4.26;82.37;100273.81;10622877;27;20062;-75
2023/05/02 22:22:19;;;;;;;0.20;0.20;;;;;;;4.36;82.28;100279.41;10627472;27;20070;-75
2023/05/02 22:27:27;;;;;;;0.20;0.20;;;;;;;4.42;81.78;100273.78;10646247;27;20043;-73
2023/05/02 22:32:29;;;;;;;0.30;0.30;;;;;;;4.39;81.90;100270.75;10564036;28;20035;-75
2023/05/02 22:37:31;;;;;;;0.50;0.20;;;;;;;4.45;82.35;100283.31;10583450;27;20050;-75
2023/05/02 22:42:33;;;;;;;1.05;0.30;;;;;;;4.39;82.47;100265.31;10631458;27;20047;-75
2023/05/02 22:47:35;;;;;;;0.10;0.10;;;;;;;4.30;81.46;100273.03;10601073;27;20031;-75
2023/05/02 22:52:38;;;;;;;0.20;0.20;;;;;;;4.42;80.95;100278.41;10606855;27;20035;-75
2023/05/02 22:58:05;;;;;;;0.20;0.20;;;;;;;4.47;80.66;100279.28;10595306;27;20039;-75
2023/05/02 23:03:09;;;;;;;0.33;0.20;;;;;;;4.53;79.89;100274.75;10614466;27;20429;-75
2023/05/02 23:08:11;;;;;;;0.45;0.13;;;;;;;4.53;78.53;100277.47;10619073;27;20047;-75
2023/05/02 23:13:13;;;;;;;0.20;0.20;;;;;;;4.32;79.77;100276.34;10613310;27;20100;-74
2023/05/02 23:18:16;;;;;;;0.38;0.38;;;;;;;4.23;80.31;100291.41;10578818;27;20047;-75
2023/05/02 23:23:19;;;;;;;0.60;0.60;;;;;;;4.19;80.30;100290.28;10587804;28;20517;-75
2023/05/02 23:28:21;;;;;;;0.20;0.20;;;;;;;4.11;79.99;100296.94;10599483;27;20054;-75